sensor_id;sensor_type;location;lat;lon;timestamp;P1;durP1;ratioP1;P2;durP2;ratioP2
39880;SDS011;25554;44.954;10.068;2023-07-08T00:00:09;12.23;;;6.47;;
39880;SDS011;25554;44.954;10.068;2023-07-08T00:02:37;9.25;;;5.90;;
39880;SDS011;25554;44.954;10.068;2023-07-08T00:05:03;11.50;;;6.38;;
39880;SDS011;25554;44.954;10.068;2023-07-08T00:07:38;10.75;;;6.63;;
39880;SDS011;25554;44.954;10.068;2023-07-08T00:12:39;17.08;;;6.97;;
39880;SDS011;25554;44.954;10.068;2023-07-08T00:15:06;8.70;;;6.38;;
39880;SDS011;25554;44.954;10.068;2023-07-08T00:17:33;8.75;;;6.53;;
39880;SDS011;25554;44.954;10.068;2023-07-08T00:19:59;10.10;;;6.70;;
39880;SDS011;25554;44.954;10.068;2023-07-08T00:22:25;13.68;;;7.65;;
39880;SDS011;25554;44.954;10.068;2023-07-08T00:24:51;12.07;;;7.45;;
39880;SDS011;25554;44.954;10.068;2023-07-08T00:27:20;11.25;;;6.63;;
39880;SDS011;25554;44.954;10.068;2023-07-08T00:29:46;10.93;;;7.07;;
39880;SDS011;25554;44.954;10.068;2023-07-08T00:34:40;9.52;;;6.97;;
39880;SDS011;25554;44.954;10.068;2023-07-08T00:37:09;9.55;;;6.75;;
39880;SDS011;25554;44.954;10.068;2023-07-08T00:39:37;13.75;;;6.80;;
39880;SDS011;25554;44.954;10.068;2023-07-08T00:42:10;16.40;;;7.18;;
39880;SDS011;25554;44.954;10.068;2023-07-08T00:44:47;13.55;;;6.70;;
39880;SDS011;25554;44.954;10.068;2023-07-08T00:47:14;12.23;;;8.05;;
39880;SDS011;25554;44.954;10.068;2023-07-08T00:49:43;12.02;;;7.65;;
39880;SDS011;25554;44.954;10.068;2023-07-08T00:52:25;13.75;;;7.32;;
39880;SDS011;25554;44.954;10.068;2023-07-08T00:54:57;11.77;;;8.00;;
39880;SDS011;25554;44.954;10.068;2023-07-08T00:57:29;14.15;;;9.18;;
39880;SDS011;25554;44.954;10.068;2023-07-08T01:00:09;13.75;;;8.15;;
39880;SDS011;25554;44.954;10.068;2023-07-08T01:02:40;13.52;;;8.10;;
39880;SDS011;25554;44.954;10.068;2023-07-08T01:05:20;19.08;;;8.52;;
39880;SDS011;25554;44.954;10.068;2023-07-08T01:07:51;12.30;;;8.65;;
39880;SDS011;25554;44.954;10.068;2023-07-08T01:10:28;12.82;;;8.27;;
39880;SDS011;25554;44.954;10.068;2023-07-08T01:13:02;12.20;;;9.00;;
39880;SDS011;25554;44.954;10.068;2023-07-08T01:15:35;14.18;;;8.55;;
39880;SDS011;25554;44.954;10.068;2023-07-08T01:18:07;15.60;;;8.70;;
39880;SDS011;25554;44.954;10.068;2023-07-08T01:20:35;11.05;;;8.07;;
39880;SDS011;25554;44.954;10.068;2023-07-08T01:23:02;14.55;;;8.70;;
39880;SDS011;25554;44.954;10.068;2023-07-08T01:25:30;13.35;;;9.10;;
39880;SDS011;25554;44.954;10.068;2023-07-08T01:27:57;13.77;;;8.52;;
39880;SDS011;25554;44.954;10.068;2023-07-08T01:30:24;18.25;;;9.68;;
39880;SDS011;25554;44.954;10.068;2023-07-08T01:32:54;15.88;;;9.60;;
39880;SDS011;25554;44.954;10.068;2023-07-08T01:35:23;17.20;;;9.48;;
39880;SDS011;25554;44.954;10.068;2023-07-08T01:42:47;20.38;;;10.25;;
39880;SDS011;25554;44.954;10.068;2023-07-08T01:45:17;11.80;;;9.55;;
39880;SDS011;25554;44.954;10.068;2023-07-08T01:47:46;18.33;;;10.93;;
39880;SDS011;25554;44.954;10.068;2023-07-08T01:50:35;18.35;;;10.50;;
39880;SDS011;25554;44.954;10.068;2023-07-08T01:53:07;16.00;;;11.20;;
39880;SDS011;25554;44.954;10.068;2023-07-08T01:55:37;16.92;;;11.15;;
39880;SDS011;25554;44.954;10.068;2023-07-08T01:58:03;18.30;;;10.00;;
39880;SDS011;25554;44.954;10.068;2023-07-08T02:00:30;19.38;;;11.20;;
39880;SDS011;25554;44.954;10.068;2023-07-08T02:02:56;14.02;;;9.57;;
39880;SDS011;25554;44.954;10.068;2023-07-08T02:05:23;15.85;;;11.65;;
39880;SDS011;25554;44.954;10.068;2023-07-08T02:07:49;16.77;;;10.90;;
39880;SDS011;25554;44.954;10.068;2023-07-08T02:10:16;18.02;;;11.68;;
39880;SDS011;25554;44.954;10.068;2023-07-08T02:12:42;17.38;;;11.35;;
39880;SDS011;25554;44.954;10.068;2023-07-08T02:15:09;16.48;;;10.15;;
39880;SDS011;25554;44.954;10.068;2023-07-08T02:17:36;16.17;;;10.98;;
39880;SDS011;25554;44.954;10.068;2023-07-08T02:20:03;17.63;;;11.43;;
39880;SDS011;25554;44.954;10.068;2023-07-08T02:22:29;17.55;;;11.13;;
39880;SDS011;25554;44.954;10.068;2023-07-08T02:24:56;20.17;;;11.13;;
39880;SDS011;25554;44.954;10.068;2023-07-08T02:29:48;15.00;;;10.70;;
39880;SDS011;25554;44.954;10.068;2023-07-08T02:32:14;14.57;;;10.45;;
39880;SDS011;25554;44.954;10.068;2023-07-08T02:34:41;16.92;;;11.43;;
39880;SDS011;25554;44.954;10.068;2023-07-08T02:37:07;14.68;;;10.35;;
39880;SDS011;25554;44.954;10.068;2023-07-08T02:39:33;18.08;;;11.10;;
39880;SDS011;25554;44.954;10.068;2023-07-08T02:42:00;22.45;;;11.57;;
39880;SDS011;25554;44.954;10.068;2023-07-08T02:44:26;15.40;;;10.93;;
39880;SDS011;25554;44.954;10.068;2023-07-08T02:46:53;14.90;;;10.68;;
39880;SDS011;25554;44.954;10.068;2023-07-08T02:49:19;15.00;;;10.90;;
39880;SDS011;25554;44.954;10.068;2023-07-08T02:54:11;20.58;;;10.55;;
39880;SDS011;25554;44.954;10.068;2023-07-08T02:56:37;14.82;;;10.73;;
39880;SDS011;25554;44.954;10.068;2023-07-08T02:59:04;15.25;;;11.07;;
39880;SDS011;25554;44.954;10.068;2023-07-08T03:01:32;18.08;;;11.73;;
39880;SDS011;25554;44.954;10.068;2023-07-08T03:04:10;18.63;;;11.77;;
39880;SDS011;25554;44.954;10.068;2023-07-08T03:06:40;21.80;;;12.40;;
39880;SDS011;25554;44.954;10.068;2023-07-08T03:09:10;17.92;;;11.65;;
39880;SDS011;25554;44.954;10.068;2023-07-08T03:11:40;19.95;;;11.77;;
39880;SDS011;25554;44.954;10.068;2023-07-08T03:14:08;20.42;;;11.90;;
39880;SDS011;25554;44.954;10.068;2023-07-08T03:16:34;18.67;;;12.30;;
39880;SDS011;25554;44.954;10.068;2023-07-08T03:21:28;23.13;;;11.63;;
39880;SDS011;25554;44.954;10.068;2023-07-08T03:26:22;18.25;;;12.30;;
39880;SDS011;25554;44.954;10.068;2023-07-08T03:28:51;18.10;;;12.77;;
39880;SDS011;25554;44.954;10.068;2023-07-08T03:31:19;19.35;;;12.85;;
39880;SDS011;25554;44.954;10.068;2023-07-08T03:33:45;16.23;;;11.55;;
39880;SDS011;25554;44.954;10.068;2023-07-08T03:38:48;20.48;;;12.75;;
39880;SDS011;25554;44.954;10.068;2023-07-08T03:41:19;18.05;;;12.80;;
39880;SDS011;25554;44.954;10.068;2023-07-08T03:43:45;19.85;;;13.45;;
39880;SDS011;25554;44.954;10.068;2023-07-08T03:46:13;22.13;;;13.77;;
39880;SDS011;25554;44.954;10.068;2023-07-08T03:48:40;19.25;;;13.43;;
39880;SDS011;25554;44.954;10.068;2023-07-08T03:51:09;25.63;;;13.90;;
39880;SDS011;25554;44.954;10.068;2023-07-08T03:53:45;21.42;;;13.85;;
39880;SDS011;25554;44.954;10.068;2023-07-08T03:56:12;24.17;;;14.38;;
39880;SDS011;25554;44.954;10.068;2023-07-08T03:58:39;23.42;;;13.50;;
39880;SDS011;25554;44.954;10.068;2023-07-08T04:01:15;20.45;;;13.07;;
39880;SDS011;25554;44.954;10.068;2023-07-08T04:03:43;19.33;;;12.60;;
39880;SDS011;25554;44.954;10.068;2023-07-08T04:06:11;18.48;;;13.63;;
39880;SDS011;25554;44.954;10.068;2023-07-08T04:08:38;16.67;;;12.05;;
39880;SDS011;25554;44.954;10.068;2023-07-08T04:11:08;17.90;;;12.50;;
39880;SDS011;25554;44.954;10.068;2023-07-08T04:13:37;17.98;;;12.13;;
39880;SDS011;25554;44.954;10.068;2023-07-08T04:16:04;16.08;;;12.30;;
39880;SDS011;25554;44.954;10.068;2023-07-08T04:18:32;18.98;;;13.38;;
39880;SDS011;25554;44.954;10.068;2023-07-08T04:20:58;21.10;;;13.00;;
39880;SDS011;25554;44.954;10.068;2023-07-08T04:23:25;20.65;;;13.38;;
39880;SDS011;25554;44.954;10.068;2023-07-08T04:25:52;16.80;;;11.52;;
39880;SDS011;25554;44.954;10.068;2023-07-08T04:28:21;17.98;;;12.40;;
39880;SDS011;25554;44.954;10.068;2023-07-08T04:33:14;20.90;;;11.70;;
39880;SDS011;25554;44.954;10.068;2023-07-08T04:35:41;21.77;;;12.60;;
39880;SDS011;25554;44.954;10.068;2023-07-08T04:38:13;20.98;;;12.63;;
39880;SDS011;25554;44.954;10.068;2023-07-08T04:40:40;21.00;;;12.43;;
39880;SDS011;25554;44.954;10.068;2023-07-08T04:43:06;21.58;;;13.20;;
39880;SDS011;25554;44.954;10.068;2023-07-08T04:45:33;18.63;;;12.43;;
39880;SDS011;25554;44.954;10.068;2023-07-08T04:48:00;20.17;;;12.57;;
39880;SDS011;25554;44.954;10.068;2023-07-08T04:53:08;18.48;;;13.50;;
39880;SDS011;25554;44.954;10.068;2023-07-08T04:55:35;21.40;;;12.90;;
39880;SDS011;25554;44.954;10.068;2023-07-08T04:58:03;24.30;;;14.43;;
39880;SDS011;25554;44.954;10.068;2023-07-08T05:00:32;20.90;;;12.75;;
39880;SDS011;25554;44.954;10.068;2023-07-08T05:02:59;23.00;;;13.48;;
39880;SDS011;25554;44.954;10.068;2023-07-08T05:07:54;19.45;;;14.35;;
39880;SDS011;25554;44.954;10.068;2023-07-08T05:10:21;18.30;;;13.93;;
39880;SDS011;25554;44.954;10.068;2023-07-08T05:12:47;20.40;;;14.88;;
39880;SDS011;25554;44.954;10.068;2023-07-08T05:15:14;24.08;;;17.17;;
39880;SDS011;25554;44.954;10.068;2023-07-08T05:17:41;23.83;;;15.80;;
39880;SDS011;25554;44.954;10.068;2023-07-08T05:20:09;23.92;;;17.80;;
39880;SDS011;25554;44.954;10.068;2023-07-08T05:22:38;22.85;;;15.32;;
39880;SDS011;25554;44.954;10.068;2023-07-08T05:25:05;20.92;;;14.95;;
39880;SDS011;25554;44.954;10.068;2023-07-08T05:27:32;24.02;;;15.82;;
39880;SDS011;25554;44.954;10.068;2023-07-08T05:30:04;21.77;;;14.98;;
39880;SDS011;25554;44.954;10.068;2023-07-08T05:32:31;24.17;;;15.90;;
39880;SDS011;25554;44.954;10.068;2023-07-08T05:34:58;24.55;;;16.25;;
39880;SDS011;25554;44.954;10.068;2023-07-08T05:39:53;21.38;;;15.23;;
39880;SDS011;25554;44.954;10.068;2023-07-08T05:42:26;25.05;;;15.27;;
39880;SDS011;25554;44.954;10.068;2023-07-08T05:44:53;22.23;;;16.85;;
39880;SDS011;25554;44.954;10.068;2023-07-08T05:47:20;21.77;;;16.70;;
39880;SDS011;25554;44.954;10.068;2023-07-08T05:49:47;24.80;;;17.58;;
39880;SDS011;25554;44.954;10.068;2023-07-08T05:52:14;26.23;;;16.38;;
39880;SDS011;25554;44.954;10.068;2023-07-08T05:54:41;23.45;;;16.00;;
39880;SDS011;25554;44.954;10.068;2023-07-08T05:57:08;20.63;;;15.35;;
39880;SDS011;25554;44.954;10.068;2023-07-08T05:59:36;21.17;;;15.68;;
39880;SDS011;25554;44.954;10.068;2023-07-08T06:02:06;21.55;;;15.65;;
39880;SDS011;25554;44.954;10.068;2023-07-08T06:04:34;22.73;;;15.98;;
39880;SDS011;25554;44.954;10.068;2023-07-08T06:07:01;22.65;;;15.05;;
39880;SDS011;25554;44.954;10.068;2023-07-08T06:09:27;24.73;;;16.80;;
39880;SDS011;25554;44.954;10.068;2023-07-08T06:11:53;22.67;;;16.20;;
39880;SDS011;25554;44.954;10.068;2023-07-08T06:14:19;25.60;;;16.58;;
39880;SDS011;25554;44.954;10.068;2023-07-08T06:16:46;25.15;;;16.25;;
39880;SDS011;25554;44.954;10.068;2023-07-08T06:21:42;20.60;;;13.40;;
39880;SDS011;25554;44.954;10.068;2023-07-08T06:24:09;23.38;;;15.73;;
39880;SDS011;25554;44.954;10.068;2023-07-08T06:29:02;21.67;;;16.20;;
39880;SDS011;25554;44.954;10.068;2023-07-08T06:31:29;21.35;;;15.23;;
39880;SDS011;25554;44.954;10.068;2023-07-08T06:33:56;22.60;;;15.88;;
39880;SDS011;25554;44.954;10.068;2023-07-08T06:38:48;23.35;;;15.73;;
39880;SDS011;25554;44.954;10.068;2023-07-08T06:41:15;22.20;;;16.30;;
39880;SDS011;25554;44.954;10.068;2023-07-08T06:43:41;22.67;;;15.57;;
39880;SDS011;25554;44.954;10.068;2023-07-08T06:46:16;18.67;;;14.68;;
39880;SDS011;25554;44.954;10.068;2023-07-08T06:48:42;21.15;;;15.02;;
39880;SDS011;25554;44.954;10.068;2023-07-08T06:51:09;22.20;;;15.27;;
39880;SDS011;25554;44.954;10.068;2023-07-08T06:53:35;20.05;;;13.60;;
39880;SDS011;25554;44.954;10.068;2023-07-08T06:56:01;22.70;;;15.25;;
39880;SDS011;25554;44.954;10.068;2023-07-08T07:00:54;21.80;;;15.07;;
39880;SDS011;25554;44.954;10.068;2023-07-08T07:05:46;18.80;;;14.65;;
39880;SDS011;25554;44.954;10.068;2023-07-08T07:10:39;22.92;;;16.20;;
39880;SDS011;25554;44.954;10.068;2023-07-08T07:13:05;22.65;;;14.38;;
39880;SDS011;25554;44.954;10.068;2023-07-08T07:15:31;21.20;;;14.65;;
39880;SDS011;25554;44.954;10.068;2023-07-08T07:17:58;18.52;;;13.80;;
39880;SDS011;25554;44.954;10.068;2023-07-08T07:20:24;19.73;;;14.00;;
39880;SDS011;25554;44.954;10.068;2023-07-08T07:22:51;17.35;;;13.27;;
39880;SDS011;25554;44.954;10.068;2023-07-08T07:25:18;20.73;;;13.43;;
39880;SDS011;25554;44.954;10.068;2023-07-08T07:27:44;16.80;;;12.20;;
39880;SDS011;25554;44.954;10.068;2023-07-08T07:30:11;16.48;;;11.23;;
39880;SDS011;25554;44.954;10.068;2023-07-08T07:32:41;14.93;;;9.70;;
39880;SDS011;25554;44.954;10.068;2023-07-08T07:35:08;13.10;;;8.60;;
39880;SDS011;25554;44.954;10.068;2023-07-08T07:37:42;15.00;;;10.77;;
39880;SDS011;25554;44.954;10.068;2023-07-08T07:40:12;13.95;;;9.57;;
39880;SDS011;25554;44.954;10.068;2023-07-08T07:42:41;13.35;;;9.27;;
39880;SDS011;25554;44.954;10.068;2023-07-08T07:45:09;14.35;;;8.98;;
39880;SDS011;25554;44.954;10.068;2023-07-08T07:47:41;11.77;;;9.07;;
39880;SDS011;25554;44.954;10.068;2023-07-08T07:50:10;14.30;;;9.57;;
39880;SDS011;25554;44.954;10.068;2023-07-08T07:52:44;13.02;;;9.43;;
39880;SDS011;25554;44.954;10.068;2023-07-08T07:55:13;15.52;;;9.10;;
39880;SDS011;25554;44.954;10.068;2023-07-08T07:57:40;12.35;;;8.35;;
39880;SDS011;25554;44.954;10.068;2023-07-08T08:00:07;12.05;;;8.77;;
39880;SDS011;25554;44.954;10.068;2023-07-08T08:02:40;11.48;;;8.85;;
39880;SDS011;25554;44.954;10.068;2023-07-08T08:05:15;15.60;;;8.00;;
39880;SDS011;25554;44.954;10.068;2023-07-08T08:07:44;13.15;;;8.77;;
39880;SDS011;25554;44.954;10.068;2023-07-08T08:10:11;14.63;;;8.90;;
39880;SDS011;25554;44.954;10.068;2023-07-08T08:12:37;13.95;;;9.30;;
39880;SDS011;25554;44.954;10.068;2023-07-08T08:15:04;17.05;;;9.43;;
39880;SDS011;25554;44.954;10.068;2023-07-08T08:17:41;11.70;;;8.07;;
39880;SDS011;25554;44.954;10.068;2023-07-08T08:20:11;12.13;;;8.95;;
39880;SDS011;25554;44.954;10.068;2023-07-08T08:22:45;13.05;;;8.82;;
39880;SDS011;25554;44.954;10.068;2023-07-08T08:25:13;11.02;;;8.15;;
39880;SDS011;25554;44.954;10.068;2023-07-08T08:27:49;11.18;;;7.43;;
39880;SDS011;25554;44.954;10.068;2023-07-08T08:30:17;10.43;;;7.88;;
39880;SDS011;25554;44.954;10.068;2023-07-08T08:32:43;10.20;;;7.60;;
39880;SDS011;25554;44.954;10.068;2023-07-08T08:35:10;12.63;;;8.88;;
39880;SDS011;25554;44.954;10.068;2023-07-08T08:37:36;14.25;;;8.88;;
39880;SDS011;25554;44.954;10.068;2023-07-08T08:40:02;14.70;;;10.02;;
39880;SDS011;25554;44.954;10.068;2023-07-08T08:42:33;14.57;;;9.73;;
39880;SDS011;25554;44.954;10.068;2023-07-08T08:45:17;10.82;;;7.30;;
39880;SDS011;25554;44.954;10.068;2023-07-08T08:48:05;10.93;;;6.35;;
39880;SDS011;25554;44.954;10.068;2023-07-08T08:50:39;12.60;;;7.90;;
39880;SDS011;25554;44.954;10.068;2023-07-08T08:53:18;14.77;;;8.88;;
39880;SDS011;25554;44.954;10.068;2023-07-08T08:55:56;10.85;;;7.95;;
39880;SDS011;25554;44.954;10.068;2023-07-08T09:01:30;11.55;;;7.50;;
39880;SDS011;25554;44.954;10.068;2023-07-08T09:06:34;15.70;;;9.70;;
39880;SDS011;25554;44.954;10.068;2023-07-08T09:12:00;8.48;;;6.88;;
39880;SDS011;25554;44.954;10.068;2023-07-08T09:14:32;11.25;;;6.68;;
39880;SDS011;25554;44.954;10.068;2023-07-08T09:20:03;8.18;;;6.00;;
39880;SDS011;25554;44.954;10.068;2023-07-08T09:27:56;8.23;;;5.75;;
39880;SDS011;25554;44.954;10.068;2023-07-08T09:30:23;7.97;;;5.55;;
39880;SDS011;25554;44.954;10.068;2023-07-08T09:32:50;8.65;;;5.97;;
39880;SDS011;25554;44.954;10.068;2023-07-08T09:35:27;8.73;;;5.95;;
39880;SDS011;25554;44.954;10.068;2023-07-08T09:38:07;12.43;;;6.18;;
39880;SDS011;25554;44.954;10.068;2023-07-08T09:40:35;8.95;;;5.95;;
39880;SDS011;25554;44.954;10.068;2023-07-08T09:43:03;9.18;;;6.15;;
39880;SDS011;25554;44.954;10.068;2023-07-08T09:45:45;9.07;;;5.05;;
39880;SDS011;25554;44.954;10.068;2023-07-08T09:48:26;7.80;;;6.00;;
39880;SDS011;25554;44.954;10.068;2023-07-08T09:51:02;8.48;;;5.60;;
39880;SDS011;25554;44.954;10.068;2023-07-08T09:53:30;6.90;;;4.80;;
39880;SDS011;25554;44.954;10.068;2023-07-08T09:58:34;5.78;;;4.88;;
39880;SDS011;25554;44.954;10.068;2023-07-08T10:01:11;9.07;;;6.00;;
39880;SDS011;25554;44.954;10.068;2023-07-08T10:03:41;6.82;;;5.40;;
39880;SDS011;25554;44.954;10.068;2023-07-08T10:06:22;7.15;;;5.22;;
39880;SDS011;25554;44.954;10.068;2023-07-08T10:08:55;6.85;;;5.10;;
39880;SDS011;25554;44.954;10.068;2023-07-08T10:11:29;7.07;;;4.97;;
39880;SDS011;25554;44.954;10.068;2023-07-08T10:13:59;6.65;;;5.22;;
39880;SDS011;25554;44.954;10.068;2023-07-08T10:16:32;8.00;;;5.10;;
39880;SDS011;25554;44.954;10.068;2023-07-08T10:19:00;11.38;;;5.18;;
39880;SDS011;25554;44.954;10.068;2023-07-08T10:27:21;4.90;;;4.43;;
39880;SDS011;25554;44.954;10.068;2023-07-08T10:52:01;4.88;;;3.90;;
39880;SDS011;25554;44.954;10.068;2023-07-08T11:07:41;6.35;;;4.65;;
39880;SDS011;25554;44.954;10.068;2023-07-08T11:10:16;5.70;;;4.28;;
39880;SDS011;25554;44.954;10.068;2023-07-08T11:12:47;8.73;;;5.10;;
39880;SDS011;25554;44.954;10.068;2023-07-08T11:15:21;8.20;;;5.88;;
39880;SDS011;25554;44.954;10.068;2023-07-08T11:18:07;7.15;;;4.57;;
39880;SDS011;25554;44.954;10.068;2023-07-08T11:23:11;8.25;;;4.65;;
39880;SDS011;25554;44.954;10.068;2023-07-08T11:29:15;7.03;;;4.60;;
39880;SDS011;25554;44.954;10.068;2023-07-08T11:31:43;6.18;;;4.40;;
39880;SDS011;25554;44.954;10.068;2023-07-08T11:34:11;8.68;;;4.95;;
39880;SDS011;25554;44.954;10.068;2023-07-08T11:36:40;10.07;;;4.75;;
39880;SDS011;25554;44.954;10.068;2023-07-08T11:42:05;5.38;;;4.60;;
39880;SDS011;25554;44.954;10.068;2023-07-08T11:44:51;5.50;;;4.70;;
39880;SDS011;25554;44.954;10.068;2023-07-08T11:58:13;7.03;;;4.68;;
39880;SDS011;25554;44.954;10.068;2023-07-08T12:08:56;9.65;;;4.75;;
39880;SDS011;25554;44.954;10.068;2023-07-08T12:12:27;12.13;;;5.43;;
39880;SDS011;25554;44.954;10.068;2023-07-08T12:18:11;6.03;;;4.72;;
39880;SDS011;25554;44.954;10.068;2023-07-08T12:21:00;7.38;;;4.70;;
39880;SDS011;25554;44.954;10.068;2023-07-08T12:24:02;7.95;;;5.57;;
39880;SDS011;25554;44.954;10.068;2023-07-08T12:26:58;6.85;;;4.78;;
39880;SDS011;25554;44.954;10.068;2023-07-08T12:32:39;8.35;;;5.20;;
39880;SDS011;25554;44.954;10.068;2023-07-08T12:35:52;7.72;;;4.90;;
39880;SDS011;25554;44.954;10.068;2023-07-08T12:38:01;7.85;;;4.40;;
39880;SDS011;25554;44.954;10.068;2023-07-08T12:40:32;6.38;;;4.22;;
39880;SDS011;25554;44.954;10.068;2023-07-08T12:42:58;5.32;;;4.47;;
39880;SDS011;25554;44.954;10.068;2023-07-08T12:45:29;7.82;;;5.47;;
39880;SDS011;25554;44.954;10.068;2023-07-08T12:48:01;7.35;;;5.00;;
39880;SDS011;25554;44.954;10.068;2023-07-08T12:50:28;6.78;;;5.10;;
39880;SDS011;25554;44.954;10.068;2023-07-08T12:52:57;6.78;;;4.60;;
39880;SDS011;25554;44.954;10.068;2023-07-08T12:55:29;6.15;;;5.05;;
39880;SDS011;25554;44.954;10.068;2023-07-08T12:57:57;5.47;;;4.60;;
39880;SDS011;25554;44.954;10.068;2023-07-08T13:00:30;9.48;;;4.85;;
39880;SDS011;25554;44.954;10.068;2023-07-08T13:03:13;6.30;;;4.88;;
39880;SDS011;25554;44.954;10.068;2023-07-08T13:05:47;6.85;;;4.85;;
39880;SDS011;25554;44.954;10.068;2023-07-08T13:08:18;6.70;;;5.13;;
39880;SDS011;25554;44.954;10.068;2023-07-08T13:10:48;7.47;;;4.43;;
39880;SDS011;25554;44.954;10.068;2023-07-08T13:13:19;7.28;;;4.55;;
39880;SDS011;25554;44.954;10.068;2023-07-08T13:15:53;7.10;;;4.70;;
39880;SDS011;25554;44.954;10.068;2023-07-08T13:18:28;8.90;;;4.90;;
39880;SDS011;25554;44.954;10.068;2023-07-08T13:20:58;6.43;;;5.18;;
39880;SDS011;25554;44.954;10.068;2023-07-08T13:23:27;6.25;;;5.15;;
39880;SDS011;25554;44.954;10.068;2023-07-08T13:25:55;7.28;;;4.65;;
39880;SDS011;25554;44.954;10.068;2023-07-08T13:28:23;5.78;;;4.57;;
39880;SDS011;25554;44.954;10.068;2023-07-08T13:30:58;6.95;;;5.05;;
39880;SDS011;25554;44.954;10.068;2023-07-08T13:33:35;7.15;;;4.45;;
39880;SDS011;25554;44.954;10.068;2023-07-08T13:36:05;9.65;;;4.40;;
39880;SDS011;25554;44.954;10.068;2023-07-08T13:38:34;8.13;;;4.97;;
39880;SDS011;25554;44.954;10.068;2023-07-08T13:41:04;6.75;;;4.70;;
39880;SDS011;25554;44.954;10.068;2023-07-08T13:43:34;6.85;;;4.78;;
39880;SDS011;25554;44.954;10.068;2023-07-08T13:48:58;7.55;;;4.88;;
39880;SDS011;25554;44.954;10.068;2023-07-08T13:51:29;6.40;;;4.82;;
39880;SDS011;25554;44.954;10.068;2023-07-08T13:54:01;5.22;;;4.60;;
39880;SDS011;25554;44.954;10.068;2023-07-08T13:56:53;5.20;;;4.47;;
39880;SDS011;25554;44.954;10.068;2023-07-08T13:59:23;7.18;;;4.35;;
39880;SDS011;25554;44.954;10.068;2023-07-08T14:01:54;7.47;;;4.65;;
39880;SDS011;25554;44.954;10.068;2023-07-08T14:04:27;5.40;;;4.65;;
39880;SDS011;25554;44.954;10.068;2023-07-08T14:06:56;4.97;;;4.45;;
39880;SDS011;25554;44.954;10.068;2023-07-08T14:09:23;5.80;;;4.70;;
39880;SDS011;25554;44.954;10.068;2023-07-08T14:11:50;7.32;;;4.38;;
39880;SDS011;25554;44.954;10.068;2023-07-08T14:14:18;5.32;;;4.30;;
39880;SDS011;25554;44.954;10.068;2023-07-08T14:16:48;5.88;;;4.57;;
39880;SDS011;25554;44.954;10.068;2023-07-08T14:19:20;9.13;;;4.93;;
39880;SDS011;25554;44.954;10.068;2023-07-08T14:21:50;6.50;;;4.25;;
39880;SDS011;25554;44.954;10.068;2023-07-08T14:24:20;5.55;;;4.25;;
39880;SDS011;25554;44.954;10.068;2023-07-08T14:26:46;5.75;;;4.70;;
39880;SDS011;25554;44.954;10.068;2023-07-08T14:29:13;6.80;;;5.03;;
39880;SDS011;25554;44.954;10.068;2023-07-08T14:31:39;6.60;;;4.20;;
39880;SDS011;25554;44.954;10.068;2023-07-08T14:34:17;5.95;;;4.53;;
39880;SDS011;25554;44.954;10.068;2023-07-08T14:36:50;6.72;;;4.60;;
39880;SDS011;25554;44.954;10.068;2023-07-08T14:39:17;6.63;;;4.30;;
39880;SDS011;25554;44.954;10.068;2023-07-08T14:41:44;7.78;;;4.28;;
39880;SDS011;25554;44.954;10.068;2023-07-08T14:44:26;8.10;;;5.03;;
39880;SDS011;25554;44.954;10.068;2023-07-08T14:46:59;8.65;;;4.55;;
39880;SDS011;25554;44.954;10.068;2023-07-08T14:49:28;6.03;;;4.65;;
39880;SDS011;25554;44.954;10.068;2023-07-08T14:55:37;9.13;;;4.43;;
39880;SDS011;25554;44.954;10.068;2023-07-08T14:58:06;6.20;;;4.40;;
39880;SDS011;25554;44.954;10.068;2023-07-08T15:03:48;7.28;;;5.40;;
39880;SDS011;25554;44.954;10.068;2023-07-08T15:06:26;6.45;;;5.00;;
39880;SDS011;25554;44.954;10.068;2023-07-08T15:09:02;8.57;;;4.63;;
39880;SDS011;25554;44.954;10.068;2023-07-08T15:12:16;6.40;;;4.45;;
39880;SDS011;25554;44.954;10.068;2023-07-08T15:19:24;5.72;;;4.78;;
39880;SDS011;25554;44.954;10.068;2023-07-08T15:23:05;8.23;;;4.80;;
39880;SDS011;25554;44.954;10.068;2023-07-08T15:26:08;6.32;;;5.00;;
39880;SDS011;25554;44.954;10.068;2023-07-08T15:29:20;5.38;;;4.47;;
39880;SDS011;25554;44.954;10.068;2023-07-08T15:33:09;6.20;;;4.70;;
39880;SDS011;25554;44.954;10.068;2023-07-08T15:44:22;6.93;;;4.55;;
39880;SDS011;25554;44.954;10.068;2023-07-08T15:48:17;6.45;;;4.88;;
39880;SDS011;25554;44.954;10.068;2023-07-08T16:03:03;6.18;;;4.50;;
39880;SDS011;25554;44.954;10.068;2023-07-08T16:12:44;6.45;;;5.05;;
39880;SDS011;25554;44.954;10.068;2023-07-08T16:18:45;10.88;;;4.80;;
39880;SDS011;25554;44.954;10.068;2023-07-08T16:21:20;5.05;;;4.43;;
39880;SDS011;25554;44.954;10.068;2023-07-08T16:23:53;9.32;;;4.80;;
39880;SDS011;25554;44.954;10.068;2023-07-08T16:26:21;5.30;;;4.43;;
39880;SDS011;25554;44.954;10.068;2023-07-08T16:28:51;15.48;;;4.93;;
39880;SDS011;25554;44.954;10.068;2023-07-08T16:31:25;9.02;;;5.07;;
39880;SDS011;25554;44.954;10.068;2023-07-08T16:38:16;9.18;;;4.90;;
39880;SDS011;25554;44.954;10.068;2023-07-08T16:41:02;9.88;;;4.95;;
39880;SDS011;25554;44.954;10.068;2023-07-08T16:43:46;9.27;;;4.82;;
39880;SDS011;25554;44.954;10.068;2023-07-08T16:46:29;7.45;;;4.88;;
39880;SDS011;25554;44.954;10.068;2023-07-08T16:49:01;6.57;;;4.70;;
39880;SDS011;25554;44.954;10.068;2023-07-08T16:51:30;7.72;;;5.10;;
39880;SDS011;25554;44.954;10.068;2023-07-08T16:57:55;6.53;;;4.85;;
39880;SDS011;25554;44.954;10.068;2023-07-08T17:00:37;10.63;;;5.45;;
39880;SDS011;25554;44.954;10.068;2023-07-08T17:03:16;6.57;;;4.57;;
39880;SDS011;25554;44.954;10.068;2023-07-08T17:09:01;8.93;;;5.45;;
39880;SDS011;25554;44.954;10.068;2023-07-08T17:12:28;6.68;;;5.03;;
39880;SDS011;25554;44.954;10.068;2023-07-08T17:18:43;8.10;;;5.38;;
39880;SDS011;25554;44.954;10.068;2023-07-08T17:21:38;10.85;;;4.60;;
39880;SDS011;25554;44.954;10.068;2023-07-08T17:24:04;7.60;;;4.57;;
39880;SDS011;25554;44.954;10.068;2023-07-08T17:26:33;13.25;;;5.05;;
39880;SDS011;25554;44.954;10.068;2023-07-08T17:29:09;7.97;;;4.93;;
39880;SDS011;25554;44.954;10.068;2023-07-08T17:32:35;5.63;;;4.63;;
39880;SDS011;25554;44.954;10.068;2023-07-08T17:42:41;10.10;;;5.95;;
39880;SDS011;25554;44.954;10.068;2023-07-08T17:45:46;5.70;;;5.17;;
39880;SDS011;25554;44.954;10.068;2023-07-08T17:48:36;7.55;;;5.15;;
39880;SDS011;25554;44.954;10.068;2023-07-08T17:51:19;9.18;;;5.03;;
39880;SDS011;25554;44.954;10.068;2023-07-08T17:58:14;8.70;;;5.38;;
39880;SDS011;25554;44.954;10.068;2023-07-08T18:00:43;6.85;;;5.03;;
39880;SDS011;25554;44.954;10.068;2023-07-08T18:03:16;8.30;;;4.60;;
39880;SDS011;25554;44.954;10.068;2023-07-08T18:05:42;6.55;;;5.10;;
39880;SDS011;25554;44.954;10.068;2023-07-08T18:08:09;9.23;;;4.63;;
39880;SDS011;25554;44.954;10.068;2023-07-08T18:10:35;8.30;;;4.60;;
39880;SDS011;25554;44.954;10.068;2023-07-08T18:13:51;8.70;;;5.13;;
39880;SDS011;25554;44.954;10.068;2023-07-08T18:16:48;5.78;;;4.65;;
39880;SDS011;25554;44.954;10.068;2023-07-08T18:19:56;11.90;;;5.30;;
39880;SDS011;25554;44.954;10.068;2023-07-08T18:23:18;9.95;;;5.18;;
39880;SDS011;25554;44.954;10.068;2023-07-08T18:26:43;7.20;;;4.80;;